Accueil
METAR-TAF:

METAR-TAF

Aéroports :

Base aérienne 105 Évreux-Fauville

Évreux, France

latitude: 49-01N, longitude: 001-13E, altitude: 141 m

Observation

Le bulletin a été fait il y a 38 minutes, à 08:00 UTC
Vent 8 kt de sud-est
Température 17°C
Humidité 82%
Pression 1009 hPa
Visibilité 10 km ou plus
Nuages fragmentés à une hauteur de 1000 ft
Ciel couvert à une hauteur de 4200 ft

METAR: LFOE 150800Z AUTO 14008KT 9999 BKN010 OVC042 17/14 Q1009 BECMG OVC045

Heure: 10:38 (08:38 UTC)

Prévision

Le bulletin a été fait il y a 4 heures et 15 minutes, à 04:23 UTC
Prévision valable du 15 à 04 UTC au 16 à 03 UTC
Vent 8 kt de sud
Visibilité 10 km ou plus
Ciel couvert à une hauteur de 4500 ft
Probabilité 30% :
Temporairement
du 15 à 11 UTC au 15 à 17 UTC
Visibilité: 4500 m
faibles averses de pluie

TAF: LFOE 150423Z 1504/1603 17008KT 9999 OVC045 PROB30 TEMPO 1511/1517 4500 -SHRA

Observations et prévisions météorologiques de plus de 4000 aéroports (messages METAR et TAF).

Les stations disponibles sont représentées par des disques jaunes et rouges sur la carte.

Passer la souris dessus pour voir le nom de la station.

Cliquer dessus pour voir les observations et prévisions météorologiques.

Pour changer de carte: cliquez sur les boutons verts avec une croix noire pour zoomer, sur le bouton vert avec un tiret pour effectuer un zoom arrière, ou sur les flèches vertes pour les cartes adjacentes.


METAR-TAF: